createdAt,value
2022-08-05T00:01:54.578Z,20.03
2022-08-05T00:04:22.882Z,20.00
2022-08-05T00:06:51.734Z,19.98
2022-08-05T00:09:20.485Z,19.94
2022-08-05T00:11:55.626Z,19.91
2022-08-05T00:14:29.062Z,19.97
2022-08-05T00:16:58.090Z,20.00
2022-08-05T00:19:33.698Z,19.97
2022-08-05T00:22:11.386Z,19.93
2022-08-05T00:24:42.199Z,19.97
2022-08-05T00:27:16.623Z,20.02
2022-08-05T00:29:45.710Z,20.07
2022-08-05T00:32:15.483Z,20.11
2022-08-05T00:35:04.581Z,20.12
2022-08-05T00:37:51.207Z,20.04
2022-08-05T00:40:26.960Z,20.01
2022-08-05T00:43:02.362Z,20.04
2022-08-05T00:45:42.856Z,20.07
2022-08-05T00:48:14.685Z,20.11
2022-08-05T00:50:46.053Z,20.13
2022-08-05T00:54:00.362Z,20.14
2022-08-05T00:56:07.702Z,20.07
2022-08-05T00:58:37.691Z,20.02
2022-08-05T01:01:08.570Z,20.02
2022-08-05T01:03:39.158Z,20.02
2022-08-05T01:06:11.379Z,19.99
2022-08-05T01:08:47.290Z,19.99
2022-08-05T01:11:24.245Z,19.99
2022-08-05T01:14:37.698Z,19.95
2022-08-05T01:17:46.116Z,19.85
2022-08-05T01:20:30.777Z,19.84
2022-08-05T01:23:34.699Z,19.88
2022-08-05T01:26:34.401Z,19.86
2022-08-05T01:29:09.028Z,19.79
2022-08-05T01:31:45.668Z,19.71
2022-08-05T01:34:26.769Z,19.71
2022-08-05T01:37:24.957Z,19.71
2022-08-05T01:39:59.022Z,19.73
2022-08-05T01:42:29.288Z,19.76
2022-08-05T01:45:02.052Z,19.79
2022-08-05T01:47:39.186Z,19.81
2022-08-05T01:50:30.674Z,19.80
2022-08-05T01:53:04.895Z,19.78
2022-08-05T01:55:36.243Z,19.70
2022-08-05T01:58:09.365Z,19.62
2022-08-05T02:00:45.901Z,19.53
2022-08-05T02:03:31.869Z,19.46
2022-08-05T02:06:23.988Z,19.39
2022-08-05T02:08:58.108Z,19.32
2022-08-05T02:11:47.918Z,19.26
2022-08-05T02:14:41.333Z,19.15
2022-08-05T02:18:31.263Z,19.06
2022-08-05T02:20:28.321Z,19.00
2022-08-05T02:23:01.410Z,18.99
2022-08-05T02:25:48.882Z,18.99
2022-08-05T02:28:36.442Z,18.98
2022-08-05T02:31:22.149Z,18.94
2022-08-05T02:34:05.426Z,18.89
2022-08-05T02:36:36.772Z,18.87
2022-08-05T02:39:10.047Z,18.90
2022-08-05T02:41:58.112Z,18.89
2022-08-05T02:44:30.431Z,18.86
2022-08-05T02:47:00.865Z,18.83
2022-08-05T02:49:37.689Z,18.81
2022-08-05T02:52:30.013Z,18.78
2022-08-05T02:55:05.562Z,18.76
2022-08-05T02:58:10.220Z,18.76
2022-08-05T03:00:25.581Z,18.76
2022-08-05T03:02:57.730Z,18.76
2022-08-05T03:06:54.363Z,18.75
2022-08-05T03:08:16.601Z,18.75
2022-08-05T03:11:53.436Z,18.76
2022-08-05T03:13:52.120Z,18.77
2022-08-05T03:16:27.726Z,18.78
2022-08-05T03:18:56.469Z,18.77
2022-08-05T03:21:24.646Z,18.78
2022-08-05T03:23:58.101Z,18.78
2022-08-05T03:26:31.638Z,18.75
2022-08-05T03:29:01.111Z,18.71
2022-08-05T03:31:56.912Z,18.65
2022-08-05T03:34:19.406Z,18.62
2022-08-05T03:36:52.700Z,18.65
2022-08-05T03:39:27.036Z,18.68
2022-08-05T03:41:56.666Z,18.71
2022-08-05T03:44:28.926Z,18.79
2022-08-05T03:46:57.424Z,18.78
2022-08-05T03:49:31.156Z,18.75
2022-08-05T03:52:50.623Z,18.74
2022-08-05T03:56:00.987Z,18.72
2022-08-05T03:58:18.239Z,18.74
2022-08-05T04:00:51.498Z,18.74
2022-08-05T04:03:28.436Z,18.75
2022-08-05T04:05:59.114Z,18.79
2022-08-05T04:08:36.326Z,18.86
2022-08-05T04:11:08.593Z,18.97
2022-08-05T04:13:50.247Z,19.03
2022-08-05T04:16:24.116Z,19.04
2022-08-05T04:18:54.912Z,19.09
2022-08-05T04:22:08.641Z,19.15
2022-08-05T04:24:19.714Z,19.22
2022-08-05T04:26:51.024Z,19.26
2022-08-05T04:29:19.794Z,19.31
2022-08-05T04:31:48.328Z,19.33
2022-08-05T04:34:31.492Z,19.37
2022-08-05T04:37:03.105Z,19.40
2022-08-05T04:39:32.308Z,19.42
2022-08-05T04:42:04.174Z,19.46
2022-08-05T04:44:32.491Z,19.49
2022-08-05T04:47:09.302Z,19.49
2022-08-05T04:50:01.782Z,19.52
2022-08-05T04:52:28.581Z,19.58
2022-08-05T04:54:57.883Z,19.63
2022-08-05T04:57:28.729Z,19.67
2022-08-05T04:59:58.597Z,19.71
2022-08-05T05:02:37.630Z,19.72
2022-08-05T05:05:26.139Z,19.75
2022-08-05T05:08:14.399Z,19.72
2022-08-05T05:10:56.733Z,19.73
2022-08-05T05:13:25.101Z,19.81
2022-08-05T05:15:56.716Z,19.85
2022-08-05T05:18:33.201Z,19.90
2022-08-05T05:21:03.943Z,19.96
2022-08-05T05:23:39.465Z,19.99
2022-08-05T05:26:28.611Z,20.00
2022-08-05T05:29:01.252Z,20.05
2022-08-05T05:34:01.861Z,20.13
2022-08-05T05:36:31.974Z,20.17
2022-08-05T05:39:00.495Z,20.20
2022-08-05T05:41:40.857Z,20.26
2022-08-05T05:44:37.409Z,20.31
2022-08-05T05:47:04.286Z,20.39
2022-08-05T05:49:33.331Z,20.44
2022-08-05T05:52:05.949Z,20.48
2022-08-05T05:54:50.427Z,20.54
2022-08-05T05:57:20.479Z,20.61
2022-08-05T05:59:49.156Z,20.65
2022-08-05T06:02:32.314Z,20.67
2022-08-05T06:05:14.659Z,20.73
2022-08-05T06:08:01.135Z,20.82
2022-08-05T06:10:36.519Z,20.87
2022-08-05T06:13:05.918Z,20.93
2022-08-05T06:16:28.596Z,21.00
2022-08-05T06:18:31.484Z,21.06
2022-08-05T06:21:00.993Z,21.13
2022-08-05T06:23:32.029Z,21.19
2022-08-05T06:26:21.634Z,21.24
2022-08-05T06:28:53.266Z,21.28
2022-08-05T06:31:22.306Z,21.34
2022-08-05T06:34:06.826Z,21.42
2022-08-05T06:36:53.565Z,21.48
2022-08-05T06:39:27.052Z,21.53
2022-08-05T06:42:04.004Z,21.59
2022-08-05T06:44:32.895Z,21.64
2022-08-05T06:47:02.234Z,21.70
2022-08-05T06:50:01.695Z,21.77
2022-08-05T06:52:37.007Z,21.84
2022-08-05T06:55:07.625Z,21.89
2022-08-05T06:58:03.858Z,21.94
2022-08-05T07:00:25.509Z,22.02
2022-08-05T07:02:54.330Z,22.13
2022-08-05T07:05:36.929Z,22.20
2022-08-05T07:08:10.742Z,22.27
2022-08-05T07:10:53.438Z,22.32
2022-08-05T07:13:57.596Z,22.38
2022-08-05T07:17:55.939Z,22.46
2022-08-05T07:20:23.108Z,22.53
2022-08-05T07:22:28.102Z,22.57
2022-08-05T07:25:23.057Z,22.64
2022-08-05T07:27:58.374Z,22.71
2022-08-05T07:30:33.751Z,22.77
2022-08-05T07:33:09.428Z,22.83
2022-08-05T07:36:05.299Z,22.87
2022-08-05T07:38:34.512Z,22.92
2022-08-05T07:42:06.863Z,22.97
2022-08-05T07:43:59.363Z,23.05
2022-08-05T07:46:30.556Z,23.13
2022-08-05T07:49:05.368Z,23.21
2022-08-05T07:51:40.826Z,23.26
2022-08-05T07:54:18.742Z,23.33
2022-08-05T07:57:14.734Z,23.40
2022-08-05T07:59:39.891Z,23.47
2022-08-05T08:02:15.641Z,23.53
2022-08-05T08:04:48.313Z,23.58
2022-08-05T08:07:22.094Z,23.62
2022-08-05T08:09:54.873Z,23.63
2022-08-05T08:12:35.396Z,23.69
2022-08-05T08:15:15.178Z,23.76
2022-08-05T08:17:49.867Z,23.82
2022-08-05T08:20:59.981Z,23.90
2022-08-05T08:24:02.164Z,23.98
2022-08-05T08:26:04.818Z,24.03
2022-08-05T08:28:36.631Z,24.08
2022-08-05T08:31:14.989Z,24.15
2022-08-05T08:33:46.912Z,24.22
2022-08-05T08:36:38.852Z,24.29
2022-08-05T08:39:15.052Z,24.35
2022-08-05T08:41:52.259Z,24.40
2022-08-05T08:45:22.764Z,24.50
2022-08-05T08:48:07.750Z,24.59
2022-08-05T08:50:31.618Z,24.65
2022-08-05T08:53:11.925Z,24.72
2022-08-05T08:56:05.015Z,24.81
2022-08-05T08:58:43.437Z,24.89
2022-08-05T09:01:18.306Z,24.98
2022-08-05T09:03:55.312Z,25.02
2022-08-05T09:06:29.539Z,25.10
2022-08-05T09:09:02.426Z,25.18
2022-08-05T09:11:50.724Z,25.26
2022-08-05T09:14:56.769Z,25.35
2022-08-05T09:17:40.155Z,25.43
2022-08-05T09:20:05.205Z,25.54
2022-08-05T09:23:05.304Z,25.65
2022-08-05T09:26:00.020Z,25.77
2022-08-05T09:28:32.365Z,25.88
2022-08-05T09:32:08.522Z,25.99
2022-08-05T09:34:10.349Z,26.07
2022-08-05T09:36:54.882Z,26.15
2022-08-05T09:39:45.136Z,26.25
2022-08-05T09:42:23.583Z,26.38
2022-08-05T09:45:03.279Z,26.49
2022-08-05T09:47:47.963Z,26.57
2022-08-05T09:50:38.736Z,26.69
2022-08-05T09:53:12.049Z,26.83
2022-08-05T09:56:04.650Z,26.95
2022-08-05T09:58:41.995Z,27.10
2022-08-05T10:01:15.222Z,27.20
2022-08-05T10:04:10.671Z,27.33
2022-08-05T10:06:41.352Z,27.46
2022-08-05T10:09:27.713Z,27.60
2022-08-05T10:12:30.289Z,27.74
2022-08-05T10:15:28.725Z,27.92
2022-08-05T10:18:13.269Z,28.07
2022-08-05T10:20:47.787Z,28.19
2022-08-05T10:23:55.060Z,28.33
2022-08-05T10:26:15.134Z,28.46
2022-08-05T10:28:45.059Z,28.55
2022-08-05T10:32:48.003Z,28.64
2022-08-05T10:34:07.879Z,28.73
2022-08-05T10:36:41.828Z,28.82
2022-08-05T10:39:59.493Z,28.93
2022-08-05T10:42:33.600Z,29.07
2022-08-05T10:45:20.913Z,29.18
2022-08-05T10:48:31.376Z,29.29
2022-08-05T10:50:59.703Z,29.40
2022-08-05T10:53:51.500Z,29.50
2022-08-05T10:56:26.535Z,29.58
2022-08-05T10:58:54.822Z,29.66
2022-08-05T11:01:54.279Z,29.75
2022-08-05T11:04:26.126Z,29.80
2022-08-05T11:07:01.438Z,29.84
2022-08-05T11:09:47.265Z,29.90
2022-08-05T11:12:34.633Z,29.98
2022-08-05T11:15:20.667Z,30.05
2022-08-05T11:18:07.293Z,30.12
2022-08-05T11:20:44.613Z,30.21
2022-08-05T11:23:33.444Z,30.27
2022-08-05T11:26:32.668Z,30.37
2022-08-05T11:29:12.077Z,30.46
2022-08-05T11:31:54.300Z,30.54
2022-08-05T11:34:39.624Z,30.59
2022-08-05T11:38:30.691Z,30.66
2022-08-05T11:40:03.117Z,30.72
2022-08-05T11:42:37.798Z,30.80
2022-08-05T11:45:23.158Z,30.89
2022-08-05T11:47:58.012Z,30.97
2022-08-05T11:50:28.085Z,31.03
2022-08-05T11:52:58.325Z,31.10
2022-08-05T11:55:32.031Z,31.18
2022-08-05T11:58:09.587Z,31.23
2022-08-05T12:00:41.506Z,31.26
2022-08-05T12:03:28.726Z,31.31
2022-08-05T12:06:05.947Z,31.38
2022-08-05T12:08:52.833Z,31.41
2022-08-05T12:11:28.260Z,31.48
2022-08-05T12:14:10.277Z,31.54
2022-08-05T12:16:45.172Z,31.58
2022-08-05T12:20:26.185Z,31.59
2022-08-05T12:22:09.589Z,31.67
2022-08-05T12:24:43.718Z,31.73
2022-08-05T12:27:26.714Z,31.74
2022-08-05T12:30:05.206Z,31.80
2022-08-05T12:32:45.931Z,31.81
2022-08-05T12:35:21.596Z,31.83
2022-08-05T12:37:53.192Z,31.86
2022-08-05T12:40:28.722Z,31.90
2022-08-05T12:42:57.982Z,31.93
2022-08-05T12:45:42.384Z,31.96
2022-08-05T12:48:27.479Z,32.01
2022-08-05T12:52:10.740Z,32.03
2022-08-05T12:54:16.666Z,32.07
2022-08-05T12:56:57.877Z,32.10
2022-08-05T12:59:46.823Z,32.12
2022-08-05T13:02:30.215Z,32.11
2022-08-05T13:04:59.055Z,32.07
2022-08-05T13:10:20.220Z,32.09
2022-08-05T13:12:57.248Z,32.11
2022-08-05T13:15:42.236Z,32.12
2022-08-05T13:18:20.554Z,32.14
2022-08-05T13:20:49.885Z,32.17
2022-08-05T13:23:22.699Z,32.20
2022-08-05T13:25:59.288Z,32.22
2022-08-05T13:28:29.314Z,32.25
2022-08-05T13:31:03.361Z,32.26
2022-08-05T13:34:23.558Z,32.21
2022-08-05T13:36:31.112Z,32.23
2022-08-05T13:38:59.441Z,32.24
2022-08-05T13:41:35.828Z,32.22
2022-08-05T13:44:06.214Z,32.20
2022-08-05T13:47:01.855Z,32.17
2022-08-05T13:49:22.907Z,32.14
2022-08-05T13:51:51.694Z,32.12
2022-08-05T13:54:24.951Z,32.10
2022-08-05T13:56:53.802Z,32.07
2022-08-05T13:59:25.326Z,32.02
2022-08-05T14:02:00.163Z,32.00
2022-08-05T14:04:52.705Z,31.98
2022-08-05T14:07:59.794Z,31.95
2022-08-05T14:10:18.763Z,31.91
2022-08-05T14:12:57.257Z,31.89
2022-08-05T14:16:08.394Z,31.86
2022-08-05T14:18:18.061Z,31.85
2022-08-05T14:20:48.443Z,31.82
2022-08-05T14:23:24.591Z,31.80
2022-08-05T14:25:58.090Z,31.76
2022-08-05T14:28:29.223Z,31.73
2022-08-05T14:30:59.752Z,31.69
2022-08-05T14:33:32.557Z,31.70
2022-08-05T14:36:21.396Z,31.71
2022-08-05T14:38:51.148Z,31.74
2022-08-05T14:41:19.754Z,31.78
2022-08-05T14:43:59.244Z,31.76
2022-08-05T14:46:35.107Z,31.76
2022-08-05T14:49:08.194Z,31.74
2022-08-05T14:51:42.595Z,31.72
2022-08-05T14:54:28.311Z,31.70
2022-08-05T14:56:59.421Z,31.64
2022-08-05T14:59:35.365Z,31.59
2022-08-05T15:02:14.699Z,31.55
2022-08-05T15:04:44.854Z,31.51
2022-08-05T15:08:06.641Z,31.43
2022-08-05T15:10:09.927Z,31.35
2022-08-05T15:12:59.851Z,31.32
2022-08-05T15:15:54.107Z,31.27
2022-08-05T15:18:17.301Z,31.25
2022-08-05T15:20:46.272Z,31.24
2022-08-05T15:23:15.770Z,31.24
2022-08-05T15:25:52.060Z,31.23
2022-08-05T15:28:27.643Z,31.21
2022-08-05T15:30:57.496Z,31.19
2022-08-05T15:34:04.614Z,31.18
2022-08-05T15:36:17.378Z,31.17
2022-08-05T15:40:41.137Z,31.15
2022-08-05T15:41:55.544Z,31.14
2022-08-05T15:44:26.399Z,31.12
2022-08-05T15:46:55.947Z,31.09
2022-08-05T15:49:40.746Z,31.08
2022-08-05T15:52:28.981Z,31.08
2022-08-05T15:54:58.377Z,31.11
2022-08-05T15:57:33.138Z,31.12
2022-08-05T16:00:05.165Z,31.13
2022-08-05T16:02:33.864Z,31.14
2022-08-05T16:05:02.951Z,31.21
2022-08-05T16:07:33.584Z,31.28
2022-08-05T16:10:01.859Z,31.29
2022-08-05T16:12:31.162Z,31.34
2022-08-05T16:15:02.304Z,31.42
2022-08-05T16:17:30.581Z,31.40
2022-08-05T16:20:05.160Z,31.36
2022-08-05T16:22:39.857Z,31.31
2022-08-05T16:25:10.421Z,31.24
